Pagrindinis puslapis
METAR-TAF:

METAR-TAF

Oro uostai :

Nankinas, Kinija

platuma: 32-00N, ilguma: 118-48E, Aukštis: 12 m

Dabartinis oras

Ataskaita buvo paskelbta 38 minutes, ne 00:00 UTC
Vėjas 12 kt iš Rytų
Temperatūra 14°C
Drėgmė 82%
Slėgis 1022 hPa
Matomumas: 5000 m
Su prošvaistėmis ne aukštis 1500 ft
rūkana

METAR: ZSNJ 100000Z 08006MPS 5000 BR BKN015 14/11 Q1022 NOSIG

Laikas: 08:38 (00:38 UTC)

Prognozė

Ataskaita buvo paskelbta 3 valandos ir 33 minutes, ne 21:05 UTC
Prognozė galioja nuo 10 metu 00 UTC su 10 metu 24 UTC
Vėjas 10 kt iš Rytų/Šiaurės Rytų
Matomumas: 3000 m
migla

TAF: ZSNJ 092105Z 1000/1024 07005MPS 3000 HZ NSC TX22/1006Z TN10/1021Z

Orai ataskaitas ir orų prognozės (METAR, TAF).

turimą stotys yra geltonos ir raudonos taškus žemėlapyje.

Perkelti pele per norėdami pamatyti stoties vardą.

Tada spustelėkite, norėdami matyti oro stebėjimo ir prognozės.

Norėdami pakeisti žemėlapį: spustelėkite ant žalios mygtukų su juodo kryžiaus žemyn,; žalią mygtuką su brūkšneliu, jei norite nutolinti; arba žalių rodyklių gretimoms žemėlapius.


METAR-TAF: